Time;durP1;ratioP1;P1;durP2;ratioP2;P2;SDS_P1;SDS_P2;PMS_P1;PMS_P2;Temp;Humidity;BMP_temperature;BMP_pressure;BME280_temperature;BME280_humidity;BME280_pressure;Samples;Min_cycle;Max_cycle;Signal;HPM_P1;HPM_P2
2022/12/10 00:00:33;;;;;;;52.97;19.70;;;;;;;;;;4988379;28;20027;-82
2022/12/10 00:02:59;;;;;;;41.27;18.67;;;;;;;;;;4988431;28;20486;-82
2022/12/10 00:05:24;;;;;;;40.80;18.30;;;;;;;;;;4972431;28;20304;-81
2022/12/10 00:07:50;;;;;;;44.87;19.63;;;;;;;;;;4973619;28;20455;-81
2022/12/10 00:10:15;;;;;;;45.13;19.93;;;;;;;;;;4973837;28;20031;-83
2022/12/10 00:12:41;;;;;;;41.53;20.13;;;;;;;;;;4973719;28;20107;-82
2022/12/10 00:15:07;;;;;;;41.83;19.37;;;;;;;;;;4973381;28;20109;-81
2022/12/10 00:17:33;;;;;;;44.97;19.10;;;;;;;;;;4972549;28;20034;-81
2022/12/10 00:19:58;;;;;;;46.70;21.57;;;;;;;;;;4988602;28;20051;-81
2022/12/10 00:22:23;;;;;;;45.13;18.47;;;;;;;;;;4972933;28;20055;-78
2022/12/10 00:24:49;;;;;;;45.57;20.47;;;;;;;;;;4971414;28;20023;-81
2022/12/10 00:27:14;;;;;;;45.17;20.83;;;;;;;;;;4988360;28;20058;-81
2022/12/10 00:29:40;;;;;;;42.97;19.70;;;;;;;;;;4988448;28;20386;-81
2022/12/10 00:32:05;;;;;;;45.23;19.63;;;;;;;;;;4988148;28;20026;-81
2022/12/10 00:34:31;;;;;;;48.10;20.53;;;;;;;;;;4973460;28;20031;-80
2022/12/10 00:36:57;;;;;;;46.67;19.60;;;;;;;;;;4972533;28;20034;-81
2022/12/10 00:39:22;;;;;;;41.07;19.43;;;;;;;;;;4972656;28;20057;-82
2022/12/10 00:41:48;;;;;;;44.73;19.43;;;;;;;;;;4974357;28;20363;-82
2022/12/10 00:44:15;;;;;;;48.73;20.63;;;;;;;;;;4955915;28;20031;-81
2022/12/10 00:46:41;;;;;;;50.13;20.03;;;;;;;;;;4988751;28;20035;-81
2022/12/10 00:49:06;;;;;;;50.43;21.80;;;;;;;;;;4976114;28;20027;-81
2022/12/10 00:51:32;;;;;;;44.97;18.83;;;;;;;;;;4990909;28;20053;-81
2022/12/10 00:53:58;;;;;;;47.10;20.73;;;;;;;;;;4990081;28;20049;-81
2022/12/10 00:56:29;;;;;;;43.13;19.03;;;;;;;;;;4975395;28;20434;-80
2022/12/10 00:58:56;;;;;;;48.70;20.27;;;;;;;;;;4976326;28;20060;-80
2022/12/10 01:01:27;;;;;;;42.03;19.97;;;;;;;;;;4975314;28;20672;-81
2022/12/10 01:03:56;;;;;;;47.65;20.23;;;;;;;;;;4975629;28;20047;-81
2022/12/10 01:06:27;;;;;;;46.67;21.47;;;;;;;;;;4975769;28;20031;-82
2022/12/10 01:08:56;;;;;;;48.35;20.55;;;;;;;;;;4990141;28;20036;-81
2022/12/10 01:11:24;;;;;;;52.30;19.70;;;;;;;;;;4991125;28;20049;-80
2022/12/10 01:13:51;;;;;;;44.40;19.17;;;;;;;;;;4974423;28;20094;-80
2022/12/10 01:16:19;;;;;;;46.43;20.93;;;;;;;;;;4974845;28;20031;-81
2022/12/10 01:18:45;;;;;;;47.67;21.23;;;;;;;;;;4973806;28;20046;-80
2022/12/10 01:21:14;;;;;;;44.70;19.97;;;;;;;;;;4973571;28;20114;-80
2022/12/10 01:23:41;;;;;;;52.57;20.43;;;;;;;;;;4971774;28;20121;-81
2022/12/10 01:26:10;;;;;;;48.77;20.53;;;;;;;;;;4973676;28;20031;-80
2022/12/10 01:28:38;;;;;;;42.20;19.60;;;;;;;;;;4973519;28;20031;-81
2022/12/10 01:31:10;;;;;;;41.53;18.93;;;;;;;;;;4988282;28;20019;-81
2022/12/10 01:33:37;;;;;;;46.75;20.33;;;;;;;;;;4987912;28;20505;-81
2022/12/10 01:36:05;;;;;;;42.73;18.97;;;;;;;;;;4972768;28;20626;-80
2022/12/10 01:38:30;;;;;;;43.77;18.07;;;;;;;;;;4951552;29;20110;-80
2022/12/10 01:40:56;;;;;;;46.47;19.80;;;;;;;;;;4952920;29;20448;-80
2022/12/10 01:43:22;;;;;;;44.67;20.63;;;;;;;;;;4953032;29;20027;-80
2022/12/10 01:45:47;;;;;;;42.77;19.70;;;;;;;;;;4954900;28;20090;-80
2022/12/10 01:48:12;;;;;;;45.57;22.10;;;;;;;;;;4972145;28;20410;-81
2022/12/10 01:50:38;;;;;;;55.37;21.23;;;;;;;;;;4971252;28;20042;-80
2022/12/10 01:53:04;;;;;;;45.67;19.83;;;;;;;;;;4956291;29;20027;-80
2022/12/10 01:55:44;;;;;;;50.97;20.77;;;;;;;;;;4956436;28;20023;-80
2022/12/10 01:58:12;;;;;;;46.80;20.53;;;;;;;;;;4956567;28;20100;-79
2022/12/10 02:00:46;;;;;;;50.50;20.80;;;;;;;;;;4971524;28;20038;-80
2022/12/10 02:03:17;;;;;;;46.47;20.20;;;;;;;;;;4971109;28;20059;-80
2022/12/10 02:05:52;;;;;;;46.40;21.37;;;;;;;;;;4954996;29;20112;-81
2022/12/10 02:08:39;;;;;;;44.27;21.13;;;;;;;;;;4956058;28;20512;-79
2022/12/10 02:11:24;;;;;;;51.90;21.80;;;;;;;;;;4954632;29;20126;-81
2022/12/10 02:14:02;;;;;;;46.57;20.53;;;;;;;;;;4955762;28;20024;-80
2022/12/10 02:16:36;;;;;;;49.43;19.83;;;;;;;;;;4953529;29;20463;-81
2022/12/10 02:19:14;;;;;;;60.97;25.17;;;;;;;;;;4955371;28;20389;-81
2022/12/10 02:21:41;;;;;;;49.83;20.20;;;;;;;;;;4955659;29;20479;-81
2022/12/10 02:24:13;;;;;;;46.20;20.60;;;;;;;;;;4971259;28;20504;-81
2022/12/10 02:26:45;;;;;;;56.53;21.98;;;;;;;;;;4955233;29;20043;-80
2022/12/10 02:29:17;;;;;;;47.70;20.77;;;;;;;;;;4955697;29;20058;-82
2022/12/10 02:31:48;;;;;;;47.72;20.75;;;;;;;;;;4955942;29;20556;-81
2022/12/10 02:34:17;;;;;;;51.33;22.90;;;;;;;;;;4970629;28;20071;-81
2022/12/10 02:36:45;;;;;;;48.37;20.53;;;;;;;;;;4970567;28;20042;-82
2022/12/10 02:39:16;;;;;;;46.10;21.17;;;;;;;;;;4954312;29;20117;-81
2022/12/10 02:41:47;;;;;;;45.33;20.67;;;;;;;;;;4970396;28;20411;-82
2022/12/10 02:44:16;;;;;;;50.33;20.87;;;;;;;;;;4955380;28;20030;-81
2022/12/10 02:46:44;;;;;;;50.67;21.33;;;;;;;;;;4956135;28;20031;-82
2022/12/10 02:49:13;;;;;;;58.07;22.80;;;;;;;;;;4955200;28;20033;-81
2022/12/10 02:51:38;;;;;;;49.67;21.17;;;;;;;;;;4955620;28;20444;-81
2022/12/10 02:54:07;;;;;;;55.90;22.60;;;;;;;;;;4969950;28;20110;-82
2022/12/10 02:56:54;;;;;;;53.03;21.27;;;;;;;;;;4953617;28;20098;-82
2022/12/10 02:59:38;;;;;;;50.13;21.43;;;;;;;;;;4970636;28;20020;-81
2022/12/10 03:02:11;;;;;;;50.03;20.53;;;;;;;;;;4956317;28;20048;-81
2022/12/10 03:04:51;;;;;;;47.10;21.13;;;;;;;;;;4970576;28;20037;-81
2022/12/10 03:07:34;;;;;;;46.43;20.00;;;;;;;;;;4969614;28;20118;-80
2022/12/10 03:10:07;;;;;;;48.20;20.97;;;;;;;;;;4955034;28;20059;-81
2022/12/10 03:12:40;;;;;;;51.00;22.33;;;;;;;;;;4954266;28;20050;-81
2022/12/10 03:15:09;;;;;;;54.43;21.67;;;;;;;;;;4953324;29;20038;-80
2022/12/10 03:17:37;;;;;;;52.13;20.73;;;;;;;;;;4954195;29;20030;-81
2022/12/10 03:20:03;;;;;;;46.37;21.00;;;;;;;;;;4969605;28;20058;-81
2022/12/10 03:22:31;;;;;;;50.57;21.27;;;;;;;;;;4955141;28;20043;-80
2022/12/10 03:24:59;;;;;;;60.33;23.00;;;;;;;;;;4969847;28;20479;-80
2022/12/10 03:27:26;;;;;;;52.80;21.97;;;;;;;;;;4955657;28;20050;-81
2022/12/10 03:29:56;;;;;;;51.13;22.33;;;;;;;;;;4953819;29;20058;-81
2022/12/10 03:32:24;;;;;;;51.67;23.13;;;;;;;;;;4953495;29;20117;-81
2022/12/10 03:34:52;;;;;;;62.50;21.13;;;;;;;;;;4955012;28;20446;-81
2022/12/10 03:37:20;;;;;;;52.13;21.53;;;;;;;;;;4979712;28;20118;-81
2022/12/10 03:39:46;;;;;;;47.67;21.40;;;;;;;;;;4988650;28;20048;-81
2022/12/10 03:42:12;;;;;;;51.60;21.73;;;;;;;;;;4974592;28;20038;-81
2022/12/10 03:44:40;;;;;;;53.23;21.50;;;;;;;;;;4974237;28;20054;-81
2022/12/10 03:47:08;;;;;;;57.33;23.57;;;;;;;;;;4972652;28;20030;-82
2022/12/10 03:49:34;;;;;;;53.30;21.37;;;;;;;;;;4988559;28;20048;-82
2022/12/10 03:51:59;;;;;;;57.37;23.00;;;;;;;;;;4988254;28;20027;-80
2022/12/10 03:54:24;;;;;;;50.20;21.60;;;;;;;;;;4972061;28;20031;-80
2022/12/10 03:56:50;;;;;;;57.47;23.70;;;;;;;;;;4973308;28;20093;-81
2022/12/10 03:59:15;;;;;;;61.50;23.03;;;;;;;;;;4972625;28;20110;-80
2022/12/10 04:01:41;;;;;;;54.27;22.33;;;;;;;;;;4973029;28;20447;-81
2022/12/10 04:04:08;;;;;;;47.30;19.80;;;;;;;;;;4988119;28;20117;-82
2022/12/10 04:06:34;;;;;;;55.20;22.57;;;;;;;;;;4973466;28;20031;-81
2022/12/10 04:08:59;;;;;;;51.97;21.70;;;;;;;;;;4970646;28;20030;-81
2022/12/10 04:11:26;;;;;;;56.20;23.77;;;;;;;;;;4972141;28;20058;-81
2022/12/10 04:16:37;;;;;;;52.50;21.63;;;;;;;;;;4974058;28;20041;-82
2022/12/10 04:19:14;;;;;;;56.10;22.70;;;;;;;;;;4988355;28;20701;-81
2022/12/10 04:27:17;;;;;;;55.63;20.93;;;;;;;;;;4972489;28;20439;-80
2022/12/10 04:29:42;;;;;;;49.20;21.50;;;;;;;;;;4972965;28;20088;-80
2022/12/10 04:32:08;;;;;;;52.57;23.83;;;;;;;;;;4973230;28;20034;-80
2022/12/10 04:34:33;;;;;;;52.03;22.00;;;;;;;;;;4973043;28;20493;-80
2022/12/10 04:37:00;;;;;;;55.63;22.97;;;;;;;;;;4964671;28;20350;-81
2022/12/10 04:39:26;;;;;;;54.40;21.40;;;;;;;;;;4953696;28;20118;-80
2022/12/10 04:41:52;;;;;;;53.90;22.17;;;;;;;;;;4951586;29;20075;-81
2022/12/10 04:44:18;;;;;;;52.90;21.03;;;;;;;;;;4953358;29;20026;-81
2022/12/10 04:46:44;;;;;;;55.00;21.50;;;;;;;;;;4951823;29;20039;-81
2022/12/10 04:49:10;;;;;;;55.90;22.67;;;;;;;;;;4952805;29;20455;-81
2022/12/10 04:51:36;;;;;;;53.23;23.17;;;;;;;;;;4951879;29;20035;-81
2022/12/10 04:54:02;;;;;;;58.70;23.10;;;;;;;;;;4953223;28;20019;-81
2022/12/10 04:56:27;;;;;;;61.03;21.77;;;;;;;;;;4968485;28;20082;-81
2022/12/10 04:58:55;;;;;;;62.37;23.93;;;;;;;;;;4952293;29;20086;-81
2022/12/10 05:01:20;;;;;;;52.10;23.33;;;;;;;;;;4953649;28;20066;-81
2022/12/10 05:03:46;;;;;;;52.20;23.60;;;;;;;;;;4967519;28;20062;-81
2022/12/10 05:06:14;;;;;;;54.43;22.73;;;;;;;;;;4951184;29;20376;-81
2022/12/10 05:08:41;;;;;;;62.30;21.37;;;;;;;;;;4951855;28;20482;-81
2022/12/10 05:11:12;;;;;;;55.87;20.80;;;;;;;;;;4952388;28;20460;-80
2022/12/10 05:13:39;;;;;;;67.10;26.43;;;;;;;;;;4951400;29;20031;-79
2022/12/10 05:16:06;;;;;;;58.63;22.33;;;;;;;;;;4967762;28;20027;-80
2022/12/10 05:18:32;;;;;;;56.17;21.53;;;;;;;;;;4968070;28;20086;-83
2022/12/10 05:20:59;;;;;;;54.20;22.20;;;;;;;;;;4969877;28;20447;-81
2022/12/10 05:23:27;;;;;;;58.17;21.27;;;;;;;;;;4971714;28;20106;-81
2022/12/10 05:26:04;;;;;;;57.70;23.70;;;;;;;;;;4970594;28;20115;-82
2022/12/10 05:28:32;;;;;;;65.17;22.63;;;;;;;;;;4971860;28;20030;-81
2022/12/10 05:30:58;;;;;;;58.90;21.97;;;;;;;;;;4971980;28;20122;-81
2022/12/10 05:33:24;;;;;;;63.97;22.63;;;;;;;;;;4971946;28;20034;-80
2022/12/10 05:36:02;;;;;;;55.73;21.63;;;;;;;;;;4971829;28;20399;-82
2022/12/10 05:38:30;;;;;;;61.70;21.80;;;;;;;;;;4970511;28;20506;-80
2022/12/10 05:40:55;;;;;;;56.70;21.90;;;;;;;;;;4970667;28;20058;-81
2022/12/10 05:43:21;;;;;;;63.40;23.50;;;;;;;;;;4971754;28;20034;-81
2022/12/10 05:45:47;;;;;;;58.13;24.30;;;;;;;;;;4988280;28;20034;-81
2022/12/10 05:48:14;;;;;;;54.83;21.53;;;;;;;;;;4971642;28;20039;-82
2022/12/10 05:50:40;;;;;;;58.63;23.23;;;;;;;;;;4986775;28;20019;-81
2022/12/10 05:53:06;;;;;;;61.97;21.97;;;;;;;;;;4971594;28;20035;-81
2022/12/10 05:55:32;;;;;;;65.43;23.03;;;;;;;;;;4972008;28;20031;-80
2022/12/10 05:57:59;;;;;;;64.37;22.77;;;;;;;;;;4970272;28;20038;-81
2022/12/10 06:00:26;;;;;;;64.47;23.57;;;;;;;;;;4971414;28;20035;-78
2022/12/10 06:02:55;;;;;;;59.03;22.97;;;;;;;;;;4973166;28;20026;-82
2022/12/10 06:05:20;;;;;;;60.63;22.50;;;;;;;;;;4971912;28;20030;-80
2022/12/10 06:07:46;;;;;;;63.03;21.47;;;;;;;;;;4970604;28;20038;-80
2022/12/10 06:10:12;;;;;;;62.67;23.17;;;;;;;;;;4967558;28;20042;-80
2022/12/10 06:12:38;;;;;;;66.43;22.43;;;;;;;;;;4952577;28;20471;-80
2022/12/10 06:15:05;;;;;;;60.73;21.47;;;;;;;;;;4951980;28;20460;-81
2022/12/10 06:17:31;;;;;;;63.37;22.43;;;;;;;;;;4934687;29;20042;-81
2022/12/10 06:19:57;;;;;;;61.33;22.87;;;;;;;;;;4966825;28;20423;-80
2022/12/10 06:22:22;;;;;;;62.80;23.23;;;;;;;;;;4950453;29;20031;-82
2022/12/10 06:24:49;;;;;;;65.57;22.20;;;;;;;;;;4952416;28;20027;-81
2022/12/10 06:27:15;;;;;;;65.83;23.43;;;;;;;;;;4950670;29;20121;-81
2022/12/10 06:29:41;;;;;;;57.37;22.57;;;;;;;;;;4952275;28;20114;-81
2022/12/10 06:32:06;;;;;;;53.23;21.27;;;;;;;;;;4969206;28;20106;-81
2022/12/10 06:34:32;;;;;;;66.17;21.37;;;;;;;;;;4956278;28;20031;-81
2022/12/10 06:36:58;;;;;;;63.67;23.43;;;;;;;;;;4970486;28;20035;-81
2022/12/10 06:39:23;;;;;;;67.97;24.63;;;;;;;;;;4955594;28;20491;-81
2022/12/10 06:41:49;;;;;;;56.93;21.70;;;;;;;;;;4954755;29;20050;-80
2022/12/10 06:44:14;;;;;;;67.40;26.40;;;;;;;;;;4956016;28;20522;-81
2022/12/10 06:46:40;;;;;;;63.53;21.93;;;;;;;;;;4970550;28;20031;-80
2022/12/10 06:49:07;;;;;;;61.30;22.07;;;;;;;;;;4956397;28;20023;-80
2022/12/10 06:51:33;;;;;;;57.70;21.60;;;;;;;;;;4955453;28;20039;-81
2022/12/10 06:53:59;;;;;;;60.57;21.90;;;;;;;;;;4955491;28;20463;-81
2022/12/10 06:56:24;;;;;;;62.77;22.63;;;;;;;;;;4955838;28;20027;-82
2022/12/10 06:58:50;;;;;;;67.73;22.03;;;;;;;;;;4955434;28;20157;-81
2022/12/10 07:01:27;;;;;;;58.53;22.07;;;;;;;;;;4954135;29;20031;-81
2022/12/10 07:03:55;;;;;;;60.00;21.00;;;;;;;;;;4955540;28;20029;-82
2022/12/10 07:06:21;;;;;;;61.60;21.73;;;;;;;;;;4969791;28;20023;-82
2022/12/10 07:08:47;;;;;;;61.70;20.13;;;;;;;;;;4954855;29;20054;-82
2022/12/10 07:11:15;;;;;;;62.37;22.43;;;;;;;;;;4955248;28;20073;-80
2022/12/10 07:13:42;;;;;;;66.30;21.83;;;;;;;;;;4954836;28;20031;-81
2022/12/10 07:16:19;;;;;;;64.37;22.63;;;;;;;;;;4969363;28;20118;-81
2022/12/10 07:18:45;;;;;;;66.90;24.60;;;;;;;;;;4953332;29;20054;-80
2022/12/10 07:21:21;;;;;;;62.40;20.67;;;;;;;;;;4957340;28;20039;-80
2022/12/10 07:23:48;;;;;;;60.50;19.97;;;;;;;;;;4969375;28;20383;-81
2022/12/10 07:26:13;;;;;;;66.30;22.90;;;;;;;;;;4953051;29;20563;-81
2022/12/10 07:28:40;;;;;;;64.63;21.53;;;;;;;;;;4954687;28;20106;-81
2022/12/10 07:31:08;;;;;;;59.50;21.87;;;;;;;;;;4969212;28;20027;-81
2022/12/10 07:33:34;;;;;;;67.47;20.93;;;;;;;;;;4953260;29;20073;-81
2022/12/10 07:36:06;;;;;;;60.73;21.40;;;;;;;;;;4969144;28;20261;-82
2022/12/10 07:38:32;;;;;;;;;;;;;;;;;;4970037;28;20027;-80
2022/12/10 07:40:57;;;;;;;60.63;21.73;;;;;;;;;;4954545;29;19910;-81
2022/12/10 07:43:23;;;;;;;64.30;21.03;;;;;;;;;;4952750;28;20046;-83
2022/12/10 07:45:48;;;;;;;64.43;20.90;;;;;;;;;;4954370;28;20057;-80
2022/12/10 07:48:15;;;;;;;59.93;22.93;;;;;;;;;;4953760;28;20035;-81
2022/12/10 07:50:41;;;;;;;74.40;23.03;;;;;;;;;;4954397;28;20035;-81
2022/12/10 07:53:06;;;;;;;65.13;22.07;;;;;;;;;;4954418;28;20042;-80
2022/12/10 07:55:32;;;;;;;57.80;21.77;;;;;;;;;;4970505;28;20027;-81
2022/12/10 07:57:59;;;;;;;66.27;21.67;;;;;;;;;;4954767;28;20031;-81
2022/12/10 08:00:24;;;;;;;54.13;22.60;;;;;;;;;;4969228;28;20034;-82
2022/12/10 08:02:50;;;;;;;63.47;21.80;;;;;;;;;;4954067;28;20027;-81
2022/12/10 08:05:15;;;;;;;56.07;18.87;;;;;;;;;;4954304;28;20031;-81
2022/12/10 08:07:41;;;;;;;65.50;20.87;;;;;;;;;;4953928;29;20042;-81
2022/12/10 08:10:07;;;;;;;62.77;22.00;;;;;;;;;;4970336;28;20027;-82
2022/12/10 08:12:33;;;;;;;59.47;20.77;;;;;;;;;;4969504;28;20134;-81
2022/12/10 08:14:58;;;;;;;67.43;21.73;;;;;;;;;;4954381;28;20065;-82
2022/12/10 08:17:24;;;;;;;51.87;19.07;;;;;;;;;;4954043;28;20023;-82
2022/12/10 08:19:50;;;;;;;57.00;20.23;;;;;;;;;;4954380;28;20055;-82
2022/12/10 08:22:16;;;;;;;71.27;20.03;;;;;;;;;;4952576;29;20046;-83
2022/12/10 08:24:42;;;;;;;57.30;20.93;;;;;;;;;;4955187;28;20023;-80
2022/12/10 08:27:07;;;;;;;65.03;19.60;;;;;;;;;;4953515;28;20039;-82
2022/12/10 08:29:33;;;;;;;72.20;20.80;;;;;;;;;;4969706;28;20575;-82
2022/12/10 08:31:58;;;;;;;58.57;18.60;;;;;;;;;;4952521;29;20031;-83
2022/12/10 08:34:24;;;;;;;60.57;20.20;;;;;;;;;;4954205;28;20105;-82
2022/12/10 08:36:49;;;;;;;60.70;21.90;;;;;;;;;;4976040;28;20023;-81
2022/12/10 08:39:16;;;;;;;66.27;21.87;;;;;;;;;;4971565;28;20037;-80
2022/12/10 08:41:43;;;;;;;61.80;20.90;;;;;;;;;;4971470;28;20412;-82
2022/12/10 08:44:08;;;;;;;58.00;21.87;;;;;;;;;;4973607;28;20096;-81
2022/12/10 08:46:34;;;;;;;52.00;19.90;;;;;;;;;;4971438;28;20114;-82
2022/12/10 08:48:59;;;;;;;59.63;21.00;;;;;;;;;;4971496;28;20117;-81
2022/12/10 08:51:26;;;;;;;56.17;20.40;;;;;;;;;;4987745;28;20363;-83
2022/12/10 08:53:51;;;;;;;72.00;24.03;;;;;;;;;;4971049;28;20463;-82
2022/12/10 08:56:17;;;;;;;60.67;20.83;;;;;;;;;;4971365;28;20118;-82
2022/12/10 08:58:42;;;;;;;62.03;21.93;;;;;;;;;;4973424;28;20114;-82
2022/12/10 09:01:11;;;;;;;66.63;21.17;;;;;;;;;;4972118;28;20073;-81
2022/12/10 09:03:37;;;;;;;52.10;19.03;;;;;;;;;;4972147;28;20034;-81
2022/12/10 09:06:10;;;;;;;65.63;21.47;;;;;;;;;;4971177;28;20530;-81
2022/12/10 09:08:36;;;;;;;61.07;22.73;;;;;;;;;;4971307;28;20046;-81
2022/12/10 09:11:17;;;;;;;55.70;17.87;;;;;;;;;;4973370;28;20039;-81
2022/12/10 09:13:43;;;;;;;55.63;19.43;;;;;;;;;;4973642;28;20109;-80
2022/12/10 09:16:08;;;;;;;57.23;19.17;;;;;;;;;;4971873;28;20031;-81
2022/12/10 09:18:34;;;;;;;57.20;20.10;;;;;;;;;;4972705;28;20398;-80
2022/12/10 09:21:04;;;;;;;55.43;19.80;;;;;;;;;;4970879;28;20042;-82
2022/12/10 09:23:30;;;;;;;51.63;19.33;;;;;;;;;;4972657;28;20030;-82
2022/12/10 09:25:55;;;;;;;55.43;19.07;;;;;;;;;;4973032;28;20042;-81
2022/12/10 09:28:21;;;;;;;58.40;18.73;;;;;;;;;;4970628;28;20046;-84
2022/12/10 09:30:55;;;;;;;58.73;19.47;;;;;;;;;;4971662;28;20061;-84
2022/12/10 09:33:21;;;;;;;52.70;19.70;;;;;;;;;;4971556;28;20114;-82
2022/12/10 09:35:46;;;;;;;64.83;21.57;;;;;;;;;;4971130;28;20050;-85
2022/12/10 09:38:13;;;;;;;57.13;19.77;;;;;;;;;;4969701;28;20035;-82
2022/12/10 09:40:45;;;;;;;55.73;18.97;;;;;;;;;;4953934;29;20031;-84
2022/12/10 09:43:23;;;;;;;;;;;;;;;;;;4955316;28;20411;-83
2022/12/10 09:45:54;;;;;;;55.67;19.30;;;;;;;;;;4952589;29;19917;-85
2022/12/10 09:48:45;;;;;;;57.30;19.80;;;;;;;;;;4952412;29;20039;-85
2022/12/10 09:51:16;;;;;;;50.37;18.27;;;;;;;;;;4953815;28;20058;-84
2022/12/10 09:53:42;;;;;;;56.05;19.80;;;;;;;;;;4953752;28;20035;-83
2022/12/10 09:56:22;;;;;;;56.40;19.40;;;;;;;;;;4968086;28;20094;-83
2022/12/10 09:58:47;;;;;;;55.07;19.73;;;;;;;;;;4953007;28;20452;-83
2022/12/10 10:01:17;;;;;;;63.60;22.53;;;;;;;;;;4952223;28;20033;-85
2022/12/10 10:03:43;;;;;;;50.97;18.93;;;;;;;;;;4951618;29;20506;-81
2022/12/10 10:06:13;;;;;;;59.80;21.10;;;;;;;;;;4953932;28;20027;-83
2022/12/10 10:08:50;;;;;;;62.83;20.57;;;;;;;;;;4956901;28;20031;-84
2022/12/10 10:11:20;;;;;;;60.97;21.10;;;;;;;;;;4956046;28;20027;-83
2022/12/10 10:13:51;;;;;;;64.17;21.03;;;;;;;;;;4954746;29;20038;-84
2022/12/10 10:16:58;;;;;;;59.13;20.45;;;;;;;;;;4957165;28;20023;-84
2022/12/10 10:19:35;;;;;;;50.77;20.37;;;;;;;;;;4956737;29;20542;-83
2022/12/10 10:22:01;;;;;;;52.33;19.90;;;;;;;;;;4955127;29;20077;-80
2022/12/10 10:24:40;;;;;;;59.10;21.70;;;;;;;;;;4956006;28;20544;-81
2022/12/10 10:27:28;;;;;;;53.17;20.37;;;;;;;;;;4970469;28;20031;-81
2022/12/10 10:29:57;;;;;;;59.33;20.33;;;;;;;;;;4955016;29;20444;-80
2022/12/10 10:32:26;;;;;;;53.47;19.37;;;;;;;;;;4970509;28;20043;-82
2022/12/10 10:34:55;;;;;;;60.33;20.57;;;;;;;;;;4954638;29;20039;-82
2022/12/10 10:37:36;;;;;;;68.70;22.37;;;;;;;;;;4965439;28;20027;-80
2022/12/10 10:40:02;;;;;;;62.33;20.77;;;;;;;;;;4974569;28;20054;-82
2022/12/10 10:42:37;;;;;;;67.27;20.57;;;;;;;;;;4974064;28;20019;-79
2022/12/10 10:45:26;;;;;;;72.10;22.47;;;;;;;;;;4973826;28;20023;-82
2022/12/10 10:48:08;;;;;;;60.20;21.37;;;;;;;;;;4974058;28;20104;-83
2022/12/10 10:50:53;;;;;;;;;;;;;;;;;;4975640;28;20031;-82
2022/12/10 10:53:31;;;;;;;53.57;18.50;;;;;;;;;;4975481;28;20330;-81
2022/12/10 10:56:17;;;;;;;57.63;19.53;;;;;;;;;;4973299;28;20085;-82
2022/12/10 10:59:26;;;;;;;58.50;18.73;;;;;;;;;;4974931;28;20522;-83
2022/12/10 11:01:53;;;;;;;51.00;18.70;;;;;;;;;;4944148;28;20039;-83
2022/12/10 11:04:27;;;;;;;59.47;22.37;;;;;;;;;;4973317;28;20061;-82
2022/12/10 11:06:56;;;;;;;63.17;21.07;;;;;;;;;;4973650;28;20018;-81
2022/12/10 11:09:27;;;;;;;53.03;20.77;;;;;;;;;;4974254;28;20035;-82
2022/12/10 11:12:39;;;;;;;52.55;17.75;;;;;;;;;;4973250;28;20065;-82
2022/12/10 11:15:29;;;;;;;51.27;19.13;;;;;;;;;;4975668;28;20035;-83
2022/12/10 11:17:56;;;;;;;49.83;18.57;;;;;;;;;;4974985;28;20123;-83
2022/12/10 11:20:23;;;;;;;60.97;19.17;;;;;;;;;;4974064;28;20043;-83
2022/12/10 11:22:51;;;;;;;56.30;20.17;;;;;;;;;;4974104;28;20061;-82
2022/12/10 11:25:19;;;;;;;54.73;19.20;;;;;;;;;;4974163;28;20364;-83
2022/12/10 11:27:47;;;;;;;60.77;20.70;;;;;;;;;;4972913;28;20116;-82
2022/12/10 11:30:22;;;;;;;56.00;20.70;;;;;;;;;;4972785;28;20027;-82
2022/12/10 11:32:47;;;;;;;60.87;19.87;;;;;;;;;;4972956;28;20030;-82
2022/12/10 11:36:11;;;;;;;61.17;20.20;;;;;;;;;;4972671;28;20038;-80
2022/12/10 11:38:50;;;;;;;51.30;19.70;;;;;;;;;;4933498;29;20035;-85
2022/12/10 11:41:21;;;;;;;51.10;18.80;;;;;;;;;;4973209;28;20367;-82
2022/12/10 11:43:54;;;;;;;66.25;21.35;;;;;;;;;;4974698;28;20022;-84
2022/12/10 11:46:43;;;;;;;55.20;19.83;;;;;;;;;;4974491;28;20030;-82
2022/12/10 11:49:42;;;;;;;53.33;18.70;;;;;;;;;;4974265;28;20029;-83
2022/12/10 11:52:36;;;;;;;52.23;20.93;;;;;;;;;;4988922;28;20023;-82
2022/12/10 11:55:38;;;;;;;55.53;20.53;;;;;;;;;;4974248;28;20030;-82
2022/12/10 11:58:28;;;;;;;63.22;21.15;;;;;;;;;;4974990;28;20033;-82
2022/12/10 12:01:18;;;;;;;51.10;19.40;;;;;;;;;;4974280;28;20062;-83
2022/12/10 12:04:05;;;;;;;57.17;18.47;;;;;;;;;;4992704;28;20367;-83
2022/12/10 12:06:37;;;;;;;57.03;20.40;;;;;;;;;;4973676;28;20113;-83
2022/12/10 12:09:28;;;;;;;54.43;19.10;;;;;;;;;;4974218;28;20019;-83
2022/12/10 12:12:13;;;;;;;62.33;21.08;;;;;;;;;;4972696;28;20145;-83
2022/12/10 12:14:45;;;;;;;55.07;19.77;;;;;;;;;;4974651;28;20026;-83
2022/12/10 12:17:16;;;;;;;65.75;21.52;;;;;;;;;;4974301;28;20034;-83
2022/12/10 12:19:48;;;;;;;48.55;18.73;;;;;;;;;;4972737;28;20118;-83
2022/12/10 12:22:24;;;;;;;55.78;19.65;;;;;;;;;;4974119;28;20101;-81
2022/12/10 12:24:54;;;;;;;50.33;20.50;;;;;;;;;;4974285;28;20027;-82
2022/12/10 12:27:35;;;;;;;56.10;18.23;;;;;;;;;;4972523;28;20483;-84
2022/12/10 12:30:00;;;;;;;54.93;20.60;;;;;;;;;;4973574;28;20098;-82
2022/12/10 12:32:55;;;;;;;52.10;18.57;;;;;;;;;;4972449;28;20482;-81
2022/12/10 12:35:36;;;;;;;44.50;17.43;;;;;;;;;;4971941;28;20403;-81
2022/12/10 12:38:31;;;;;;;56.13;19.23;;;;;;;;;;4973882;28;20523;-81
2022/12/10 12:41:04;;;;;;;49.27;17.53;;;;;;;;;;4959703;28;20050;-81
2022/12/10 12:43:40;;;;;;;50.83;18.83;;;;;;;;;;4971839;28;20022;-81
2022/12/10 12:46:16;;;;;;;52.63;18.10;;;;;;;;;;4974037;28;20113;-82
2022/12/10 12:49:01;;;;;;;50.63;19.70;;;;;;;;;;4971956;28;20105;-82
2022/12/10 12:51:33;;;;;;;50.23;17.93;;;;;;;;;;4973481;28;20110;-82
2022/12/10 12:53:59;;;;;;;45.50;17.30;;;;;;;;;;4973454;28;20554;-82
2022/12/10 12:56:50;;;;;;;45.47;17.93;;;;;;;;;;4971507;28;20118;-82
2022/12/10 12:59:21;;;;;;;47.80;17.23;;;;;;;;;;4972991;28;20054;-81
2022/12/10 13:01:58;;;;;;;53.42;20.23;;;;;;;;;;4973784;28;20022;-81
2022/12/10 13:04:24;;;;;;;57.87;18.87;;;;;;;;;;4988615;28;20045;-81
2022/12/10 13:07:33;;;;;;;42.87;17.50;;;;;;;;;;4972425;28;20081;-82
2022/12/10 13:10:14;;;;;;;46.13;17.27;;;;;;;;;;4932599;29;20027;-82
2022/12/10 13:12:47;;;;;;;47.57;18.40;;;;;;;;;;4916070;29;20143;-82
2022/12/10 13:15:32;;;;;;;53.53;19.20;;;;;;;;;;4959599;28;20454;-81
2022/12/10 13:18:10;;;;;;;61.73;19.63;;;;;;;;;;4971735;28;20126;-82
2022/12/10 13:20:41;;;;;;;55.63;20.67;;;;;;;;;;4971431;28;20042;-81
2022/12/10 13:23:25;;;;;;;58.88;21.23;;;;;;;;;;4973726;28;20088;-83
2022/12/10 13:25:54;;;;;;;49.60;19.07;;;;;;;;;;4974438;28;20035;-80
2022/12/10 13:28:35;;;;;;;50.43;19.40;;;;;;;;;;4974222;28;20037;-81
2022/12/10 13:31:16;;;;;;;54.10;19.37;;;;;;;;;;4975382;28;20034;-81
2022/12/10 13:34:01;;;;;;;56.53;18.90;;;;;;;;;;4975505;28;20035;-81
2022/12/10 13:36:35;;;;;;;58.50;18.90;;;;;;;;;;4963988;28;20034;-81
2022/12/10 13:39:03;;;;;;;52.77;19.73;;;;;;;;;;4977662;28;20080;-81
2022/12/10 13:44:48;;;;;;;64.67;17.43;;;;;;;;;;4979942;28;20165;-81
2022/12/10 13:47:16;;;;;;;47.03;18.33;;;;;;;;;;4978701;28;20030;-81
2022/12/10 13:49:54;;;;;;;46.17;17.00;;;;;;;;;;4979975;28;20550;-82
2022/12/10 13:52:26;;;;;;;46.50;18.27;;;;;;;;;;4980553;28;20078;-83
2022/12/10 13:55:02;;;;;;;37.57;16.37;;;;;;;;;;4993196;28;20022;-82
2022/12/10 13:57:37;;;;;;;49.00;16.63;;;;;;;;;;4977123;28;20462;-82
2022/12/10 14:00:24;;;;;;;52.83;17.50;;;;;;;;;;4992640;28;20027;-82
2022/12/10 14:03:02;;;;;;;43.07;16.83;;;;;;;;;;4977738;28;20541;-81
2022/12/10 14:05:40;;;;;;;44.07;15.67;;;;;;;;;;4976863;28;20715;-83
2022/12/10 14:08:10;;;;;;;39.23;16.43;;;;;;;;;;4978742;28;20331;-81
2022/12/10 14:10:36;;;;;;;49.37;17.67;;;;;;;;;;4976847;28;20478;-83
2022/12/10 14:13:04;;;;;;;43.70;16.47;;;;;;;;;;4991527;28;20034;-82
2022/12/10 14:15:31;;;;;;;53.77;18.13;;;;;;;;;;4959791;28;20042;-82
2022/12/10 14:18:12;;;;;;;47.80;16.43;;;;;;;;;;4991987;28;20117;-83
2022/12/10 14:20:42;;;;;;;53.93;18.07;;;;;;;;;;4975227;28;20050;-83
2022/12/10 14:23:35;;;;;;;41.90;16.77;;;;;;;;;;4975863;28;20031;-82
2022/12/10 14:26:11;;;;;;;38.07;14.97;;;;;;;;;;4977990;28;20416;-81
2022/12/10 14:28:43;;;;;;;46.00;16.37;;;;;;;;;;4973851;28;20037;-81
2022/12/10 14:31:19;;;;;;;44.30;16.20;;;;;;;;;;4976019;28;20113;-84
2022/12/10 14:33:47;;;;;;;48.27;16.17;;;;;;;;;;4990144;28;20491;-83
2022/12/10 14:36:24;;;;;;;42.97;16.10;;;;;;;;;;4991290;28;20031;-83
2022/12/10 14:38:50;;;;;;;41.17;16.07;;;;;;;;;;4991197;28;20324;-83
2022/12/10 14:41:20;;;;;;;37.93;15.23;;;;;;;;;;4976981;28;20033;-83
2022/12/10 14:43:46;;;;;;;49.47;18.63;;;;;;;;;;4974958;28;20344;-81
2022/12/10 14:46:22;;;;;;;43.67;17.20;;;;;;;;;;4976282;28;20030;-82
2022/12/10 14:48:50;;;;;;;46.23;15.93;;;;;;;;;;4975123;28;20023;-83
2022/12/10 14:51:25;;;;;;;47.87;16.63;;;;;;;;;;4974752;28;20380;-83